Time;durP1;ratioP1;P1;durP2;ratioP2;P2;SDS_P1;SDS_P2;PMS_P1;PMS_P2;Temp;Humidity;BMP_temperature;BMP_pressure;BME280_temperature;BME280_humidity;BME280_pressure;Samples;Min_cycle;Max_cycle;Signal;HPM_P1;HPM_P2
2022/11/21 00:02:18;;;;;;;5.35;0.90;;;;;;;5.98;80.69;99552.81;4934788;29;20648;-75
2022/11/21 00:05:21;;;;;;;7.03;1.58;;;;;;;5.99;80.93;99552.72;4934820;29;20094;-75
2022/11/21 00:08:25;;;;;;;8.90;1.73;;;;;;;6.00;80.83;99548.41;4934642;29;20307;-75
2022/11/21 00:11:28;;;;;;;;;;;;;;;6.07;80.73;99552.38;4935134;29;20094;-75
2022/11/21 00:14:35;;;;;;;8.82;1.38;;;;;;;6.00;81.05;99548.41;4934652;29;19961;-75
2022/11/21 00:17:38;;;;;;;;;;;;;;;6.11;80.71;99553.03;4935113;29;20417;-75
2022/11/21 00:20:42;;;;;;;7.35;1.23;;;;;;;6.12;80.91;99550.38;4934618;29;19938;-76
2022/11/21 00:23:48;;;;;;;7.05;1.10;;;;;;;6.16;81.17;99558.84;4934559;29;20126;-75
2022/11/21 00:26:52;;;;;;;4.85;0.90;;;;;;;6.18;81.47;99557.00;4934502;29;20074;-74
2022/11/21 00:29:56;;;;;;;4.35;0.80;;;;;;;6.18;81.90;99550.06;4934577;29;20085;-75
2022/11/21 00:33:00;;;;;;;6.25;1.30;;;;;;;6.17;82.68;99556.19;4922608;29;20186;-75
2022/11/21 00:36:09;;;;;;;;;;;;;;;6.16;83.27;99546.72;4937197;29;20071;-75
2022/11/21 00:39:14;;;;;;;5.57;1.02;;;;;;;6.12;83.32;99558.16;4926847;29;19938;-75
2022/11/21 00:42:18;;;;;;;8.50;1.80;;;;;;;6.16;82.88;99580.47;4938380;29;20091;-75
2022/11/21 00:45:22;;;;;;;5.93;0.73;;;;;;;6.35;81.83;99556.16;4938186;29;20106;-75
2022/11/21 00:48:25;;;;;;;;;;;;;;;6.29;82.42;99558.16;4938855;29;20409;-75
2022/11/21 00:51:28;;;;;;;6.00;1.88;;;;;;;6.23;83.39;99555.88;4938464;29;19950;-75
2022/11/21 00:54:31;;;;;;;;;;;;;;;6.31;83.02;99547.69;4938575;29;20102;-75
2022/11/21 00:57:35;;;;;;;7.78;1.75;;;;;;;6.38;82.32;99551.69;4938473;29;20380;-75
2022/11/21 01:00:39;;;;;;;11.18;2.17;;;;;;;6.44;81.92;99550.50;4938030;29;20047;-75
2022/11/21 01:03:42;;;;;;;10.90;2.17;;;;;;;6.46;82.09;99551.28;4938006;29;20058;-75
2022/11/21 01:06:45;;;;;;;10.35;1.77;;;;;;;6.45;82.02;99534.03;4938075;29;20429;-75
2022/11/21 01:09:49;;;;;;;11.02;1.88;;;;;;;6.44;82.27;99537.53;4938029;29;20051;-75
2022/11/21 01:12:52;;;;;;;11.77;2.15;;;;;;;6.45;82.40;99534.03;4937858;29;20050;-76
2022/11/21 01:15:55;;;;;;;9.77;2.00;;;;;;;6.40;82.58;99526.47;4937500;29;20090;-76
2022/11/21 01:18:59;;;;;;;9.35;2.17;;;;;;;6.31;83.11;99526.91;4937630;29;20071;-76
2022/11/21 01:22:02;;;;;;;;;;;;;;;6.31;83.24;99526.09;4937910;29;20537;-76
2022/11/21 01:25:06;;;;;;;12.82;2.75;;;;;;;6.40;82.63;99530.81;4937594;29;20293;-76
2022/11/21 01:28:09;;;;;;;15.07;3.72;;;;;;;6.36;82.72;99521.50;4937620;29;20123;-76
2022/11/21 01:31:17;;;;;;;10.13;2.10;;;;;;;6.35;82.55;99535.38;4937577;29;20141;-76
2022/11/21 01:34:20;;;;;;;9.98;2.45;;;;;;;6.41;81.99;99529.88;4937448;29;20062;-76
2022/11/21 01:37:24;;;;;;;11.07;2.92;;;;;;;6.32;82.65;99527.75;4937553;29;20520;-76
2022/11/21 01:40:27;;;;;;;12.82;2.30;;;;;;;6.31;82.55;99536.47;4937603;29;20047;-76
2022/11/21 01:43:30;;;;;;;8.40;1.80;;;;;;;6.36;82.59;99524.09;4942851;29;20196;-76
2022/11/21 01:46:34;;;;;;;8.27;1.85;;;;;;;6.29;82.60;99524.41;4955335;28;20091;-73
2022/11/21 01:49:39;;;;;;;9.55;2.03;;;;;;;6.37;82.00;99524.00;4956136;29;20049;-73
2022/11/21 01:52:43;;;;;;;14.23;2.22;;;;;;;6.29;82.60;99523.59;4956017;29;20579;-73
2022/11/21 01:55:46;;;;;;;14.15;2.90;;;;;;;6.29;82.72;99519.22;4956068;29;20046;-72
2022/11/21 01:58:51;;;;;;;;;;;;;;;6.28;82.51;99527.06;4956403;29;20124;-73
2022/11/21 02:01:56;;;;;;;12.27;3.00;;;;;;;6.36;82.20;99530.13;4955807;29;20406;-73
2022/11/21 02:05:05;;;;;;;10.88;2.60;;;;;;;6.37;82.02;99533.56;4955831;29;20053;-73
2022/11/21 02:08:18;;;;;;;17.17;2.67;;;;;;;6.28;83.28;99540.88;4952425;29;20456;-74
2022/11/21 02:11:31;;;;;;;13.65;3.95;;;;;;;6.10;83.39;99538.41;4955741;29;20432;-73
2022/11/21 02:14:37;;;;;;;13.38;3.35;;;;;;;6.17;83.79;99538.00;4950085;29;20409;-73
2022/11/21 02:17:40;;;;;;;14.57;2.63;;;;;;;6.07;84.89;99543.75;4936287;29;20110;-73
2022/11/21 02:20:47;;;;;;;19.40;10.90;;;;;;;5.98;84.89;99552.81;4936279;29;20107;-73
2022/11/21 02:24:39;;;;;;;23.48;17.60;;;;;;;6.11;85.05;99548.69;4936260;29;20109;-73
2022/11/21 02:27:48;;;;;;;16.67;4.28;;;;;;;6.21;84.37;99556.88;4936306;29;20420;-77
2022/11/21 02:30:51;;;;;;;9.75;2.00;;;;;;;6.28;84.16;99553.03;4936587;29;20529;-75
2022/11/21 02:33:55;;;;;;;;;;;;;;;6.38;84.00;99556.00;4936777;29;20099;-76
2022/11/21 02:36:58;;;;;;;18.42;4.30;;;;;;;6.16;85.22;99551.03;4924573;29;19964;-76
2022/11/21 02:40:07;;;;;;;14.20;3.10;;;;;;;6.27;85.15;99544.41;4936525;29;20050;-77
2022/11/21 02:43:18;;;;;;;10.25;2.35;;;;;;;6.16;85.43;99538.94;4936460;29;20054;-76
2022/11/21 02:46:21;;;;;;;13.93;2.72;;;;;;;6.21;85.64;99552.50;4936038;29;20057;-76
2022/11/21 02:49:33;;;;;;;11.60;2.17;;;;;;;6.03;85.74;99550.81;4924462;29;20098;-75
2022/11/21 02:52:36;;;;;;;10.50;2.15;;;;;;;6.16;85.44;99553.63;4936053;29;20578;-76
2022/11/21 02:55:40;;;;;;;10.07;2.83;;;;;;;6.16;85.28;99544.13;4936025;29;20175;-73
2022/11/21 02:58:43;;;;;;;18.90;4.47;;;;;;;6.27;85.30;99548.78;4935385;29;20513;-73
2022/11/21 03:01:46;;;;;;;;;;;;;;;6.16;85.95;99540.66;4935996;29;20042;-73
2022/11/21 03:04:50;;;;;;;12.73;3.03;;;;;;;6.09;85.78;99545.31;4935265;29;20385;-73
2022/11/21 03:07:53;;;;;;;14.50;3.00;;;;;;;6.06;85.86;99550.66;4935360;29;20074;-74
2022/11/21 03:10:57;;;;;;;21.38;2.13;;;;;;;5.95;86.90;99545.19;4935578;29;20051;-73
2022/11/21 03:14:00;;;;;;;;;;;;;;;5.87;87.61;99547.25;4935957;29;20171;-73
2022/11/21 03:17:03;;;;;;;10.98;2.25;;;;;;;5.75;87.23;99546.13;4935067;29;19978;-73
2022/11/21 03:20:08;;;;;;;9.35;2.03;;;;;;;5.43;88.83;99547.63;4935219;29;20046;-74
2022/11/21 03:23:11;;;;;;;16.42;3.60;;;;;;;5.46;88.83;99552.69;4935330;29;20046;-73
2022/11/21 03:26:15;;;;;;;10.65;1.95;;;;;;;5.41;88.76;99555.47;4935224;29;20050;-73
2022/11/21 03:29:18;;;;;;;10.73;2.65;;;;;;;5.47;88.64;99544.81;4935244;29;20069;-73
2022/11/21 03:32:21;;;;;;;9.18;1.85;;;;;;;5.29;88.84;99551.69;4935461;29;20063;-72
2022/11/21 03:35:25;;;;;;;10.60;2.28;;;;;;;5.33;89.25;99562.78;4935092;29;20050;-73
2022/11/21 03:38:28;;;;;;;13.73;2.53;;;;;;;5.49;88.34;99558.56;4934956;29;20039;-73
2022/11/21 03:41:32;;;;;;;;;;;;;;;5.68;87.22;99568.91;4935384;29;20051;-73
2022/11/21 03:44:35;;;;;;;11.98;1.95;;;;;;;5.83;86.51;99567.31;4934805;29;20269;-73
2022/11/21 03:47:38;;;;;;;10.43;2.50;;;;;;;5.95;85.53;99561.56;4923062;29;20078;-73
2022/11/21 03:50:43;;;;;;;10.20;2.58;;;;;;;6.08;85.28;99561.81;4935020;29;20078;-73
2022/11/21 03:53:46;;;;;;;10.88;2.90;;;;;;;6.07;84.92;99573.13;4934680;29;20054;-72
2022/11/21 03:56:50;;;;;;;10.90;2.88;;;;;;;6.12;84.39;99568.53;4935172;29;20050;-72
2022/11/21 03:59:53;;;;;;;9.13;1.98;;;;;;;6.07;84.81;99559.31;4934736;29;20043;-73
2022/11/21 04:02:57;;;;;;;10.00;2.00;;;;;;;6.03;84.83;99571.56;4934636;29;20058;-74
2022/11/21 04:06:00;;;;;;;10.10;2.05;;;;;;;6.11;84.41;99566.84;4934855;29;20180;-74
2022/11/21 04:09:04;;;;;;;9.57;1.85;;;;;;;6.19;84.14;99580.31;4934434;29;20099;-73
2022/11/21 04:12:08;;;;;;;10.25;2.17;;;;;;;6.28;84.10;99584.19;4934692;29;20097;-73
2022/11/21 04:15:11;;;;;;;15.80;4.60;;;;;;;6.24;84.28;99578.31;4934506;29;20101;-73
2022/11/21 04:18:14;;;;;;;9.70;2.60;;;;;;;6.24;84.45;99575.72;4934396;29;20091;-73
2022/11/21 04:21:18;;;;;;;10.85;2.97;;;;;;;6.23;84.59;99586.19;4934466;29;20046;-73
2022/11/21 04:24:21;;;;;;;;;;;;;;;6.34;83.84;99578.69;4934929;29;20446;-74
2022/11/21 04:27:24;;;;;;;10.23;2.28;;;;;;;6.35;83.41;99584.72;4934461;29;20399;-73
2022/11/21 04:30:28;;;;;;;11.73;2.22;;;;;;;6.40;83.50;99578.38;4934411;29;20047;-74
2022/11/21 04:33:31;;;;;;;12.95;1.95;;;;;;;6.37;83.68;99588.09;4934108;29;20140;-73
2022/11/21 04:36:35;;;;;;;10.40;2.45;;;;;;;6.39;83.44;99588.88;4934349;29;20336;-73
2022/11/21 04:39:38;;;;;;;8.02;1.58;;;;;;;6.40;83.39;99593.13;4934536;29;20075;-73
2022/11/21 04:42:42;;;;;;;10.13;2.10;;;;;;;6.46;84.06;99587.63;4934296;29;20097;-73
2022/11/21 04:45:46;;;;;;;12.90;3.00;;;;;;;6.34;83.59;99589.06;4933874;29;20130;-73
2022/11/21 04:48:49;;;;;;;10.20;2.30;;;;;;;6.46;83.35;99588.47;4934564;29;20051;-73
2022/11/21 04:51:53;;;;;;;7.13;1.85;;;;;;;6.51;83.42;99593.44;4934175;29;20558;-74
2022/11/21 04:54:56;;;;;;;11.40;2.78;;;;;;;6.58;83.27;99588.78;4934263;29;20051;-72
2022/11/21 04:57:59;;;;;;;10.40;2.13;;;;;;;6.62;83.14;99596.34;4929365;29;20098;-75
2022/11/21 05:01:07;;;;;;;8.95;2.22;;;;;;;6.53;84.36;99589.84;4928920;29;20059;-73
2022/11/21 05:04:10;;;;;;;9.80;1.90;;;;;;;6.57;86.36;99603.50;4930033;29;20138;-75
2022/11/21 05:07:14;;;;;;;12.68;3.80;;;;;;;6.56;86.61;99601.84;4941730;29;20054;-78
2022/11/21 05:10:18;;;;;;;10.73;2.67;;;;;;;6.64;87.36;99604.91;4948493;29;20583;-73
2022/11/21 05:13:21;;;;;;;;;;;;;;;6.56;88.07;99601.00;4952482;29;20046;-73
2022/11/21 05:16:25;;;;;;;15.75;2.40;;;;;;;6.61;87.94;99609.41;4953129;29;19921;-78
2022/11/21 05:19:28;;;;;;;;;;;;;;;6.37;87.87;99608.88;4947309;29;20134;-76
2022/11/21 05:22:32;;;;;;;11.27;1.92;;;;;;;6.44;86.44;99599.84;4948862;29;19921;-74
2022/11/21 05:25:35;;;;;;;7.00;1.70;;;;;;;6.32;85.67;99601.31;4951819;29;20217;-75
2022/11/21 05:28:39;;;;;;;6.93;1.75;;;;;;;6.42;86.55;99601.69;4951498;29;20058;-76
2022/11/21 05:31:42;;;;;;;;;;;;;;;6.31;85.64;99599.63;4952769;29;20054;-76
2022/11/21 05:34:45;;;;;;;8.00;2.13;;;;;;;6.42;84.88;99593.91;4951536;29;19969;-76
2022/11/21 05:37:54;;;;;;;;;;;;;;;6.61;84.51;99596.44;4932708;29;20413;-75
2022/11/21 05:40:57;;;;;;;6.90;1.90;;;;;;;6.50;85.09;99591.75;4945064;29;19921;-77
2022/11/21 05:44:00;;;;;;;8.10;2.03;;;;;;;6.51;85.13;99593.44;4950184;29;20058;-78
2022/11/21 05:47:04;;;;;;;;;;;;;;;6.53;85.09;99584.63;4949148;29;20535;-77
2022/11/21 05:50:07;;;;;;;8.68;1.75;;;;;;;6.51;85.32;99583.91;4942981;29;19924;-77
2022/11/21 05:53:10;;;;;;;7.72;2.50;;;;;;;6.55;85.24;99586.34;4951807;29;20073;-79
2022/11/21 05:56:15;;;;;;;;;;;;;;;6.52;84.99;99582.13;4942521;29;20101;-79
2022/11/21 05:59:19;;;;;;;6.20;1.77;;;;;;;6.46;85.42;99587.63;4949314;29;19924;-79
2022/11/21 06:05:44;;;;;;;7.03;2.30;;;;;;;6.37;86.69;99594.13;4950082;29;20133;-79
2022/11/21 06:08:47;;;;;;;;;;;;;;;6.40;87.26;99600.91;4952669;29;20616;-80
2022/11/21 06:11:51;;;;;;;7.43;2.28;;;;;;;6.48;86.64;99601.41;4951643;29;19944;-80
2022/11/21 06:14:54;;;;;;;7.35;1.75;;;;;;;6.27;88.88;99606.72;4939552;29;20071;-75
2022/11/21 06:17:59;;;;;;;8.15;1.35;;;;;;;6.35;88.99;99595.09;4946526;29;20062;-75
2022/11/21 06:21:06;;;;;;;11.15;3.17;;;;;;;6.13;89.92;99591.00;4946755;29;20605;-75
2022/11/21 06:24:11;;;;;;;8.10;1.90;;;;;;;6.07;89.69;99591.28;4951433;29;20050;-79
2022/11/21 06:27:14;;;;;;;6.38;2.38;;;;;;;5.97;88.96;99592.66;4951383;29;20181;-77
2022/11/21 06:30:18;;;;;;;;;;;;;;;6.00;89.10;99602.88;4951940;29;20058;-77
2022/11/21 06:33:21;;;;;;;7.75;2.22;;;;;;;6.02;88.77;99601.03;4931840;29;19970;-77
2022/11/21 06:36:25;;;;;;;6.30;2.22;;;;;;;6.16;88.98;99598.63;4931052;29;20110;-76
2022/11/21 06:39:28;;;;;;;6.93;1.90;;;;;;;6.23;89.95;99599.16;4944751;29;20127;-76
2022/11/21 06:42:32;;;;;;;9.13;2.60;;;;;;;6.10;90.25;99603.28;4933480;29;20276;-77
2022/11/21 06:45:36;;;;;;;10.38;3.72;;;;;;;6.16;90.18;99610.75;4938960;29;20194;-76
2022/11/21 06:48:41;;;;;;;7.47;2.65;;;;;;;6.18;90.34;99609.75;4943154;29;20146;-78
2022/11/21 06:51:45;;;;;;;5.90;1.52;;;;;;;6.34;90.17;99598.63;4948458;29;20117;-79
2022/11/21 06:54:48;;;;;;;7.38;1.80;;;;;;;5.80;93.85;99603.78;4936827;29;20520;-73
2022/11/21 06:57:55;;;;;;;14.48;2.22;;;;;;;5.95;94.42;99597.06;4934772;29;20046;-73
2022/11/21 07:01:06;;;;;;;5.20;1.58;;;;;;;6.00;94.26;99595.09;4934336;29;20102;-74
2022/11/21 07:04:09;;;;;;;7.03;2.00;;;;;;;6.01;93.71;99596.78;4930612;29;20050;-75
2022/11/21 07:07:13;;;;;;;11.35;2.33;;;;;;;5.93;94.96;99594.53;4941456;29;20078;-73
2022/11/21 07:10:16;;;;;;;10.80;4.40;;;;;;;5.93;94.17;99599.72;4934175;29;20145;-78
2022/11/21 07:13:20;;;;;;;20.63;13.32;;;;;;;6.12;93.05;99599.69;4937155;29;20074;-76
2022/11/21 07:16:24;;;;;;;7.72;4.68;;;;;;;6.26;91.72;99606.81;4931846;29;20298;-75
2022/11/21 07:19:28;;;;;;;9.65;3.28;;;;;;;6.43;90.03;99603.38;4949619;29;20566;-75
2022/11/21 07:22:31;;;;;;;;;;;;;;;6.28;90.90;99610.97;4945653;29;20050;-75
2022/11/21 07:25:34;;;;;;;9.18;1.60;;;;;;;6.15;92.19;99612.50;4949603;29;19965;-75
2022/11/21 07:28:38;;;;;;;10.38;3.08;;;;;;;6.02;93.67;99616.63;4949335;29;20054;-73
2022/11/21 07:31:42;;;;;;;7.10;2.22;;;;;;;6.01;94.08;99618.38;4931337;29;20407;-75
2022/11/21 07:34:46;;;;;;;7.72;4.07;;;;;;;6.08;93.62;99618.06;4932192;29;20050;-75
2022/11/21 07:37:49;;;;;;;13.25;3.58;;;;;;;6.14;92.78;99615.19;4949067;29;20432;-75
2022/11/21 07:40:55;;;;;;;9.05;2.80;;;;;;;6.17;92.22;99604.66;4948875;29;20468;-75
2022/11/21 07:43:58;;;;;;;5.50;1.40;;;;;;;6.05;92.82;99611.28;4931199;29;20107;-74
2022/11/21 07:47:02;;;;;;;9.88;1.52;;;;;;;6.23;91.35;99618.19;4944212;29;20175;-76
2022/11/21 07:50:06;;;;;;;7.00;1.40;;;;;;;6.11;91.91;99618.75;4950171;29;20527;-75
2022/11/21 07:53:10;;;;;;;6.13;1.48;;;;;;;6.23;91.56;99618.19;4947610;29;20054;-73
2022/11/21 07:56:14;;;;;;;10.00;3.40;;;;;;;6.35;91.44;99621.06;4930797;29;20147;-74
2022/11/21 07:59:18;;;;;;;;;;;;;;;6.40;91.65;99613.91;4929566;29;20094;-74
2022/11/21 08:02:22;;;;;;;;;;;;;;;6.22;92.26;99613.91;4942713;29;19924;-73
2022/11/21 08:05:25;;;;;;;5.97;1.00;;;;;;;6.37;91.74;99614.91;4928597;29;19941;-74
2022/11/21 08:08:28;;;;;;;9.13;1.52;;;;;;;6.45;92.22;99606.75;4928790;29;20079;-75
2022/11/21 08:11:34;;;;;;;5.50;1.08;;;;;;;6.52;91.51;99611.53;4936507;29;20101;-76
2022/11/21 08:14:38;;;;;;;7.35;2.15;;;;;;;6.56;91.28;99609.63;4947755;29;20433;-76
2022/11/21 08:17:43;;;;;;;6.50;3.40;;;;;;;6.27;93.26;99609.31;4945145;29;20085;-72
2022/11/21 08:20:47;;;;;;;10.02;4.47;;;;;;;6.05;95.44;99611.28;4948900;29;20131;-72
2022/11/21 08:23:50;;;;;;;14.13;5.57;;;;;;;6.17;96.40;99599.47;4947002;29;20074;-75
2022/11/21 08:26:53;;;;;;;;;;;;;;;6.33;95.90;99607.34;4948571;29;20377;-74
2022/11/21 08:29:56;;;;;;;10.10;5.07;;;;;;;6.49;94.46;99609.09;4949733;29;20014;-75
2022/11/21 08:33:00;;;;;;;;;;;;;;;6.59;93.54;99603.44;4948305;29;20050;-75
2022/11/21 08:36:07;;;;;;;7.97;4.30;;;;;;;6.85;91.81;99591.72;4948329;29;19986;-75
2022/11/21 08:39:10;;;;;;;9.15;4.53;;;;;;;6.74;92.12;99593.09;4938710;29;20055;-75
2022/11/21 08:42:13;;;;;;;9.70;4.32;;;;;;;6.77;92.52;99612.06;4941856;29;20058;-75
2022/11/21 08:45:17;;;;;;;19.75;9.65;;;;;;;6.77;91.95;99602.50;4946566;29;20058;-76
2022/11/21 08:48:21;;;;;;;16.40;9.10;;;;;;;6.80;92.21;99607.56;4947454;29;20054;-76
2022/11/21 08:51:27;;;;;;;15.93;5.82;;;;;;;6.83;91.79;99606.53;4953335;29;20049;-74
2022/11/21 08:54:31;;;;;;;17.58;7.43;;;;;;;6.91;91.56;99594.81;4953548;29;20054;-77
2022/11/21 08:57:41;;;;;;;18.17;8.38;;;;;;;6.96;90.47;99597.22;4955727;28;20071;-74
2022/11/21 09:00:44;;;;;;;11.93;6.22;;;;;;;6.99;89.23;99597.88;4957529;29;20049;-75
2022/11/21 09:03:48;;;;;;;11.07;4.07;;;;;;;6.90;87.96;99594.94;4957427;29;20085;-74
2022/11/21 09:06:51;;;;;;;;;;;;;;;6.88;87.97;99604.53;4957565;29;20054;-75
2022/11/21 09:09:54;;;;;;;8.07;3.43;;;;;;;6.93;88.22;99598.19;4957322;29;19921;-74
2022/11/21 09:12:58;;;;;;;8.48;1.83;;;;;;;6.85;88.89;99599.50;4951453;29;20066;-74
2022/11/21 09:19:28;;;;;;;8.73;2.22;;;;;;;6.94;87.45;99596.44;4932851;29;20060;-75
2022/11/21 09:22:32;;;;;;;6.05;1.27;;;;;;;6.98;88.14;99603.16;4932287;29;20141;-75
2022/11/21 09:25:45;;;;;;;8.68;3.38;;;;;;;6.90;88.55;99600.97;4932678;29;20111;-74
2022/11/21 09:28:48;;;;;;;7.60;3.20;;;;;;;6.82;88.34;99594.47;4931889;29;20103;-79
2022/11/21 09:31:52;;;;;;;7.43;2.50;;;;;;;7.03;87.77;99588.16;4930967;29;20045;-79
2022/11/21 09:34:55;;;;;;;;;;;;;;;7.06;89.07;99588.00;4935307;29;20106;-78
2022/11/21 09:37:58;;;;;;;5.60;1.98;;;;;;;7.28;88.67;99589.47;4935159;29;19925;-77
2022/11/21 09:45:02;;;;;;;5.30;1.77;;;;;;;7.09;87.26;99576.59;4951994;29;20106;-78
2022/11/21 09:48:23;;;;;;;4.15;1.08;;;;;;;7.26;86.05;99579.13;4936937;29;20050;-77
2022/11/21 09:51:29;;;;;;;3.90;1.20;;;;;;;7.34;85.21;99576.09;4953607;29;20043;-80
2022/11/21 09:54:38;;;;;;;5.97;1.30;;;;;;;7.45;83.46;99573.78;4956145;29;20505;-84
2022/11/21 09:57:43;;;;;;;5.35;1.25;;;;;;;7.43;84.37;99575.63;4955953;29;20049;-79
2022/11/21 10:00:50;;;;;;;8.00;2.10;;;;;;;7.65;84.91;99570.91;4956165;29;20070;-80
2022/11/21 10:03:53;;;;;;;6.43;1.65;;;;;;;7.58;83.82;99564.38;4955852;29;20065;-80
2022/11/21 10:07:06;;;;;;;4.55;1.52;;;;;;;7.66;85.68;99556.16;4955323;28;20070;-78
2022/11/21 10:10:31;;;;;;;8.43;2.08;;;;;;;7.53;86.34;99557.75;4955858;29;20050;-80
2022/11/21 10:14:04;;;;;;;7.53;2.30;;;;;;;7.54;85.31;99536.88;4955582;29;20078;-80
2022/11/21 10:17:29;;;;;;;7.22;1.75;;;;;;;7.52;87.30;99538.69;4955591;29;20063;-79
2022/11/21 10:21:03;;;;;;;6.30;2.35;;;;;;;7.64;86.91;99532.81;4953864;29;20050;-87
2022/11/21 10:24:21;;;;;;;6.30;2.05;;;;;;;7.74;86.56;99534.91;4946343;28;20575;-78
2022/11/21 10:27:33;;;;;;;8.32;2.47;;;;;;;7.73;83.66;99517.63;4931562;29;20128;-77
2022/11/21 10:30:43;;;;;;;5.07;1.58;;;;;;;7.75;81.28;99518.34;4931527;29;20043;-78
2022/11/21 10:33:51;;;;;;;6.13;1.60;;;;;;;7.78;80.65;99512.97;4933568;29;20074;-79
2022/11/21 10:36:59;;;;;;;9.98;2.50;;;;;;;7.82;78.92;99509.31;4931752;29;20115;-78
2022/11/21 10:40:27;;;;;;;5.20;1.50;;;;;;;7.93;78.72;99502.53;4931428;29;20047;-78
2022/11/21 10:47:27;;;;;;;5.07;1.10;;;;;;;7.59;77.68;99501.00;4930882;29;20097;-78
2022/11/21 10:50:47;;;;;;;4.97;1.90;;;;;;;7.59;77.92;99501.00;4937197;29;20050;-79
2022/11/21 10:57:49;;;;;;;13.10;5.13;;;;;;;7.67;78.03;99485.81;4931619;29;20312;-79
2022/11/21 11:00:58;;;;;;;6.50;1.17;;;;;;;7.56;78.33;99487.34;4945117;29;20086;-79
2022/11/21 11:04:10;;;;;;;7.28;2.10;;;;;;;7.49;75.84;99479.03;4949088;29;20598;-79
2022/11/21 11:07:22;;;;;;;4.50;1.35;;;;;;;7.38;76.40;99471.84;4949765;29;20079;-79
2022/11/21 11:10:27;;;;;;;4.97;1.92;;;;;;;7.36;76.01;99470.25;4931188;29;20156;-78
2022/11/21 11:13:35;;;;;;;5.15;1.30;;;;;;;7.50;76.18;99465.13;4931203;29;20536;-77
2022/11/21 11:16:43;;;;;;;5.38;1.23;;;;;;;7.63;74.64;99460.06;4949777;29;20212;-78
2022/11/21 11:20:05;;;;;;;4.57;0.80;;;;;;;7.51;74.61;99448.59;4949992;28;20054;-81
2022/11/21 11:23:18;;;;;;;4.65;1.10;;;;;;;7.56;74.99;99445.72;4949196;29;20058;-74
2022/11/21 11:26:29;;;;;;;3.70;1.33;;;;;;;7.54;74.39;99443.22;4949701;29;20097;-74
2022/11/21 11:29:40;;;;;;;3.55;1.38;;;;;;;7.44;74.05;99439.47;4949252;29;20144;-74
2022/11/21 11:32:43;;;;;;;8.43;2.90;;;;;;;7.46;74.05;99437.59;4930402;29;20204;-74
2022/11/21 11:35:47;;;;;;;2.90;1.13;;;;;;;7.59;72.22;99430.75;4930107;29;20046;-75
2022/11/21 11:39:01;;;;;;;4.55;1.42;;;;;;;7.69;71.80;99425.91;4930476;29;20049;-75
2022/11/21 11:50:18;;;;;;;4.07;1.58;;;;;;;7.75;71.49;99409.06;4948801;29;20050;-75
2022/11/21 11:53:37;;;;;;;7.90;3.45;;;;;;;7.52;71.81;99403.44;4939768;29;20113;-75
2022/11/21 11:56:42;;;;;;;6.68;2.35;;;;;;;7.59;71.80;99399.53;4949123;29;20086;-75
2022/11/21 11:59:57;;;;;;;5.93;1.30;;;;;;;7.53;72.08;99389.53;4949430;29;20105;-75
2022/11/21 12:03:17;;;;;;;5.35;2.72;;;;;;;7.59;71.48;99377.91;4948953;29;20062;-75
2022/11/21 12:06:24;;;;;;;4.35;1.35;;;;;;;7.68;70.43;99378.19;4947824;29;20046;-75
2022/11/21 12:09:28;;;;;;;4.70;1.05;;;;;;;7.71;68.55;99376.34;4948686;29;20160;-75
2022/11/21 12:12:42;;;;;;;9.40;1.30;;;;;;;7.86;67.75;99360.69;4948483;29;20138;-75
2022/11/21 12:15:50;;;;;;;4.22;0.80;;;;;;;7.92;67.96;99349.06;4948607;29;20082;-75
2022/11/21 12:19:11;;;;;;;7.38;0.82;;;;;;;7.99;69.30;99352.97;4949853;29;20053;-75
2022/11/21 12:22:15;;;;;;;3.72;0.80;;;;;;;7.89;72.07;99357.06;4931648;29;20120;-74
2022/11/21 12:25:48;;;;;;;4.82;1.20;;;;;;;7.77;67.46;99355.19;4935540;29;20054;-73
2022/11/21 12:29:26;;;;;;;3.60;1.05;;;;;;;7.83;68.22;99350.44;4947777;29;20054;-73
2022/11/21 12:33:05;;;;;;;6.50;1.95;;;;;;;7.83;68.16;99352.22;4948250;29;20141;-73
2022/11/21 12:36:31;;;;;;;4.40;1.40;;;;;;;7.82;68.02;99347.94;4927885;29;20053;-72
2022/11/21 12:39:48;;;;;;;6.18;2.15;;;;;;;7.85;68.10;99345.16;4928968;29;20046;-74
2022/11/21 12:43:13;;;;;;;5.03;2.00;;;;;;;7.82;67.72;99332.34;4928609;29;20106;-74
2022/11/21 12:46:38;;;;;;;10.60;7.93;;;;;;;7.74;68.79;99324.13;4928906;29;20354;-76
2022/11/21 12:57:39;;;;;;;8.30;3.10;;;;;;;7.82;67.23;99298.50;4928893;29;20089;-75
2022/11/21 13:01:02;;;;;;;8.27;2.92;;;;;;;7.80;67.54;99298.59;4928698;29;20046;-77
2022/11/21 13:04:16;;;;;;;4.93;1.80;;;;;;;7.74;72.92;99287.72;4942753;29;20078;-75
2022/11/21 13:07:21;;;;;;;3.63;1.17;;;;;;;7.65;74.22;99281.28;4947853;29;20135;-76
2022/11/21 13:10:26;;;;;;;4.88;1.13;;;;;;;7.52;75.44;99282.94;4948308;29;20066;-75
2022/11/21 13:13:34;;;;;;;4.88;1.20;;;;;;;7.64;75.19;99274.41;4936621;29;20038;-75
2022/11/21 13:16:45;;;;;;;6.72;1.67;;;;;;;7.54;74.06;99268.94;4947597;29;20122;-76
2022/11/21 13:20:15;;;;;;;4.57;1.40;;;;;;;7.46;77.90;99265.94;4928832;29;20406;-76
2022/11/21 13:23:38;;;;;;;5.50;1.20;;;;;;;7.60;76.81;99254.72;4928053;29;20123;-74
2022/11/21 13:26:42;;;;;;;7.85;1.20;;;;;;;7.52;77.89;99242.16;4942876;29;20464;-75
2022/11/21 13:30:06;;;;;;;4.55;1.13;;;;;;;7.72;76.28;99240.94;4946966;29;20051;-75
2022/11/21 13:33:33;;;;;;;8.45;2.35;;;;;;;7.88;75.71;99238.25;4930162;29;20092;-74
2022/11/21 13:36:37;;;;;;;4.80;1.60;;;;;;;7.89;72.68;99239.94;4942545;29;20049;-75
2022/11/21 13:39:47;;;;;;;5.25;0.93;;;;;;;7.84;78.42;99231.56;4947950;29;20051;-76
2022/11/21 13:43:09;;;;;;;4.63;1.00;;;;;;;7.93;77.50;99215.38;4940525;28;20626;-75
2022/11/21 13:46:51;;;;;;;3.72;0.80;;;;;;;7.95;77.50;99205.72;4932466;29;20158;-75
2022/11/21 13:49:57;;;;;;;5.93;1.30;;;;;;;8.03;76.39;99187.84;4932606;29;20111;-74
2022/11/21 13:53:27;;;;;;;4.68;1.00;;;;;;;8.07;77.02;99191.94;4931231;29;20543;-74
2022/11/21 13:56:56;;;;;;;5.97;0.88;;;;;;;8.22;76.71;99181.47;4949486;29;20042;-73
2022/11/21 14:00:26;;;;;;;6.47;1.48;;;;;;;8.18;76.32;99183.44;4936870;29;20118;-75
2022/11/21 14:03:50;;;;;;;7.18;0.95;;;;;;;8.19;78.69;99186.88;4932285;29;20071;-75
2022/11/21 14:07:34;;;;;;;5.30;1.10;;;;;;;8.26;79.53;99173.34;4931692;29;20626;-74
2022/11/21 14:10:45;;;;;;;13.73;1.27;;;;;;;8.10;78.55;99168.31;4934593;29;20081;-74
2022/11/21 14:13:50;;;;;;;5.25;1.95;;;;;;;8.01;79.68;99165.44;4936978;29;20045;-74
2022/11/21 14:17:21;;;;;;;6.75;1.98;;;;;;;8.09;79.96;99161.44;4931990;29;20102;-73
2022/11/21 14:20:28;;;;;;;10.57;1.80;;;;;;;8.15;78.85;99153.22;4932345;29;20103;-78
2022/11/21 14:23:41;;;;;;;5.32;1.25;;;;;;;8.05;79.60;99156.53;4932422;29;20086;-74
2022/11/21 14:26:51;;;;;;;3.67;1.00;;;;;;;8.06;80.14;99148.59;4935329;29;20046;-75
2022/11/21 14:29:55;;;;;;;6.57;1.30;;;;;;;7.95;80.79;99132.84;4936381;29;20552;-78
2022/11/21 14:33:22;;;;;;;4.95;1.02;;;;;;;7.89;80.89;99126.25;4921044;29;20055;-76
2022/11/21 14:36:30;;;;;;;5.82;0.93;;;;;;;7.68;82.29;99120.63;4929944;29;20054;-77
2022/11/21 14:39:39;;;;;;;9.00;1.60;;;;;;;7.73;81.12;99119.53;4931336;29;20463;-75
2022/11/21 14:42:49;;;;;;;5.47;1.08;;;;;;;7.66;80.92;99140.72;4934471;29;20105;-76
2022/11/21 14:45:53;;;;;;;5.68;1.60;;;;;;;7.71;81.06;99137.81;4950252;29;20477;-76
2022/11/21 14:49:16;;;;;;;8.48;1.55;;;;;;;7.55;82.24;99137.94;4950334;29;20058;-76
2022/11/21 14:52:30;;;;;;;6.97;0.93;;;;;;;7.49;83.06;99138.31;4948459;29;20054;-76
2022/11/21 14:55:37;;;;;;;9.38;1.42;;;;;;;7.33;83.14;99122.00;4947022;29;20038;-78
2022/11/21 14:58:40;;;;;;;5.05;1.02;;;;;;;7.32;83.04;99110.75;4931558;29;20127;-76
2022/11/21 15:01:53;;;;;;;;;;;;;;;7.32;83.12;99095.16;4930283;29;20047;-77
2022/11/21 15:05:06;;;;;;;3.63;1.08;;;;;;;7.06;83.12;99090.72;4944216;29;20388;-78
2022/11/21 15:08:10;;;;;;;6.40;1.02;;;;;;;6.99;83.41;99082.47;4950380;29;20050;-77
2022/11/21 15:11:16;;;;;;;5.00;1.05;;;;;;;6.99;83.71;99077.28;4937210;29;20517;-77
2022/11/21 15:14:34;;;;;;;6.55;1.30;;;;;;;6.86;83.65;99066.78;4949549;29;20105;-78
2022/11/21 15:17:38;;;;;;;4.95;1.05;;;;;;;6.70;83.02;99064.25;4949545;29;20038;-77
2022/11/21 15:20:50;;;;;;;6.85;1.33;;;;;;;6.75;82.32;99049.22;4949066;29;20122;-76
2022/11/21 15:23:57;;;;;;;4.97;1.08;;;;;;;6.57;82.13;99041.69;4949710;29;20055;-74
2022/11/21 15:27:26;;;;;;;5.97;1.33;;;;;;;6.52;81.59;99027.22;4935290;29;20147;-74
2022/11/21 15:30:32;;;;;;;4.68;1.05;;;;;;;6.55;81.46;99026.22;4936565;29;20516;-73
2022/11/21 15:34:05;;;;;;;11.48;4.78;;;;;;;6.48;82.22;99001.56;4945130;28;20098;-72
2022/11/21 15:37:16;;;;;;;8.20;3.03;;;;;;;6.40;82.23;99001.16;4932019;29;20039;-73